createdAt,value
2023-11-14T00:03:09.032Z,3.38
2023-11-14T00:08:13.417Z,2.38
2023-11-14T00:13:15.481Z,3.60
2023-11-14T00:18:17.346Z,2.88
2023-11-14T00:23:19.407Z,3.60
2023-11-14T00:28:21.541Z,3.05
2023-11-14T00:33:23.628Z,1.67
2023-11-14T00:38:25.465Z,2.90
2023-11-14T00:43:27.526Z,5.40
2023-11-14T00:48:29.962Z,4.35
2023-11-14T00:53:32.101Z,4.45
2023-11-14T00:58:36.208Z,3.25
2023-11-14T01:03:38.245Z,2.78
2023-11-14T01:08:40.234Z,5.00
2023-11-14T01:13:42.203Z,3.75
2023-11-14T01:18:44.529Z,2.05
2023-11-14T01:23:46.889Z,1.88
2023-11-14T01:28:48.926Z,2.13
2023-11-14T01:33:50.931Z,2.45
2023-11-14T01:38:55.548Z,3.50
2023-11-14T01:43:57.375Z,2.38
2023-11-14T01:49:00.464Z,2.88
2023-11-14T01:54:02.958Z,3.88
2023-11-14T01:59:05.664Z,3.17
2023-11-14T02:04:14.090Z,4.38
2023-11-14T02:09:15.929Z,3.55
2023-11-14T02:14:18.046Z,3.28
2023-11-14T02:19:20.413Z,2.80
2023-11-14T02:24:22.619Z,1.70
2023-11-14T02:29:27.378Z,3.00
2023-11-14T02:34:31.869Z,2.55
2023-11-14T02:39:34.241Z,2.47
2023-11-14T02:44:38.555Z,2.72
2023-11-14T02:50:00.042Z,2.85
2023-11-14T02:55:02.000Z,2.33
2023-11-14T03:00:05.504Z,2.35
2023-11-14T03:05:09.977Z,2.90
2023-11-14T03:10:14.199Z,3.65
2023-11-14T03:15:16.201Z,2.63
2023-11-14T03:20:24.348Z,2.13
2023-11-14T03:25:30.950Z,3.30
2023-11-14T03:30:34.333Z,4.07
2023-11-14T03:35:36.293Z,1.88
2023-11-14T03:40:38.249Z,3.90
2023-11-14T03:45:40.312Z,2.15
2023-11-14T03:50:42.213Z,4.47
2023-11-14T03:55:44.152Z,3.72
2023-11-14T04:00:46.693Z,4.68
2023-11-14T04:05:48.480Z,3.60
2023-11-14T04:10:50.571Z,3.25
2023-11-14T04:15:54.633Z,2.03
2023-11-14T04:20:56.607Z,2.53
2023-11-14T04:26:00.908Z,2.03
2023-11-14T04:31:02.926Z,0.65
2023-11-14T04:36:05.324Z,2.22
2023-11-14T04:41:09.909Z,2.00
2023-11-14T04:46:11.784Z,2.40
2023-11-14T04:51:13.897Z,1.50
2023-11-14T04:56:18.421Z,1.70
2023-11-14T05:01:22.826Z,1.33
2023-11-14T05:06:25.288Z,1.85
2023-11-14T05:11:27.443Z,1.70
2023-11-14T05:16:29.669Z,2.33
2023-11-14T05:21:31.944Z,1.95
2023-11-14T05:26:33.833Z,2.00
2023-11-14T05:31:36.977Z,1.42
2023-11-14T05:36:39.179Z,1.52
2023-11-14T05:41:43.781Z,1.98
2023-11-14T05:46:45.961Z,2.05
2023-11-14T05:51:48.031Z,1.75
2023-11-14T05:56:50.123Z,1.55
2023-11-14T06:01:54.972Z,1.58
2023-11-14T06:06:57.082Z,2.03
2023-11-14T06:11:59.110Z,1.52
2023-11-14T06:17:01.094Z,1.55
2023-11-14T06:22:03.537Z,1.25
2023-11-14T06:27:05.880Z,1.08
2023-11-14T06:32:08.339Z,1.35
2023-11-14T06:37:12.693Z,1.73
2023-11-14T06:42:17.249Z,1.15
2023-11-14T06:47:19.262Z,1.33
2023-11-14T06:52:21.258Z,1.15
2023-11-14T06:57:23.057Z,1.50
2023-11-14T07:02:25.073Z,0.98
2023-11-14T07:07:27.066Z,1.90
2023-11-14T07:12:31.237Z,1.00
2023-11-14T07:17:36.882Z,0.90
2023-11-14T07:22:42.117Z,1.13
2023-11-14T07:27:44.621Z,1.67
2023-11-14T07:32:48.987Z,0.90
2023-11-14T07:37:51.037Z,1.10
2023-11-14T07:42:53.691Z,0.98
2023-11-14T07:47:55.535Z,1.63
2023-11-14T07:52:59.673Z,1.15
2023-11-14T07:58:01.483Z,1.65
2023-11-14T08:03:04.797Z,1.55
2023-11-14T08:08:09.304Z,1.13
2023-11-14T08:13:11.698Z,1.27
2023-11-14T08:18:14.712Z,0.60
2023-11-14T08:23:19.422Z,1.75
2023-11-14T08:28:23.665Z,1.13
2023-11-14T08:33:25.607Z,0.98
2023-11-14T08:38:28.860Z,0.80
2023-11-14T08:43:33.485Z,1.50
2023-11-14T08:48:35.374Z,0.60
2023-11-14T08:53:37.244Z,1.60
2023-11-14T08:58:39.139Z,1.13
2023-11-14T09:03:45.768Z,1.13
2023-11-14T09:08:49.935Z,1.02
2023-11-14T09:13:58.439Z,1.40
2023-11-14T09:19:00.691Z,1.75
2023-11-14T09:24:04.887Z,1.55
2023-11-14T09:29:06.696Z,0.93
2023-11-14T09:34:09.858Z,0.52
2023-11-14T09:39:24.255Z,1.45
2023-11-14T09:44:29.701Z,1.02
2023-11-14T09:49:32.096Z,1.38
2023-11-14T09:54:35.191Z,1.17
2023-11-14T09:59:43.040Z,1.48
2023-11-14T10:04:47.540Z,0.90
2023-11-14T10:09:49.745Z,1.08
2023-11-14T10:14:51.736Z,1.48
2023-11-14T10:19:57.583Z,0.75
2023-11-14T10:24:59.566Z,1.23
2023-11-14T10:30:01.391Z,1.60
2023-11-14T10:35:18.849Z,0.70
2023-11-14T10:40:20.742Z,1.40
2023-11-14T10:45:22.604Z,1.20
2023-11-14T10:50:28.833Z,0.30
2023-11-14T10:55:30.940Z,0.40
2023-11-14T11:00:35.619Z,0.70
2023-11-14T11:05:39.445Z,0.55
2023-11-14T11:10:44.713Z,0.50
2023-11-14T11:15:48.567Z,1.17
2023-11-14T11:20:51.490Z,0.45
2023-11-14T11:26:13.032Z,0.52
2023-11-14T11:31:24.754Z,0.73
2023-11-14T11:36:26.916Z,0.63
2023-11-14T11:41:36.862Z,0.50
2023-11-14T11:46:46.034Z,1.05
2023-11-14T11:51:49.202Z,0.90
2023-11-14T11:56:55.862Z,1.70
2023-11-14T12:02:03.425Z,0.50
2023-11-14T12:07:05.739Z,1.48
2023-11-14T12:12:10.216Z,0.90
2023-11-14T12:17:12.424Z,0.98
2023-11-14T12:22:14.347Z,0.52
2023-11-14T12:27:18.457Z,0.95
2023-11-14T12:32:25.508Z,0.93
2023-11-14T12:37:28.507Z,0.90
2023-11-14T12:42:30.735Z,1.23
2023-11-14T12:47:34.145Z,0.60
2023-11-14T12:52:42.774Z,1.88
2023-11-14T12:57:47.135Z,0.77
2023-11-14T13:02:49.186Z,2.00
2023-11-14T13:07:51.786Z,1.05
2023-11-14T13:12:53.580Z,0.63
2023-11-14T13:17:55.489Z,0.93
2023-11-14T13:22:58.780Z,1.38
2023-11-14T13:28:04.856Z,1.70
2023-11-14T13:33:06.811Z,0.68
2023-11-14T13:38:16.001Z,0.88
2023-11-14T13:43:18.270Z,0.82
2023-11-14T13:48:21.282Z,1.23
2023-11-14T13:53:28.153Z,0.88
2023-11-14T13:58:32.607Z,1.10
2023-11-14T14:03:34.607Z,1.58
2023-11-14T14:08:37.198Z,1.83
2023-11-14T14:13:42.078Z,0.95
2023-11-14T14:18:46.257Z,2.35
2023-11-14T14:23:48.438Z,1.40
2023-11-14T14:28:50.393Z,0.93
2023-11-14T14:33:52.642Z,0.80
2023-11-14T14:38:54.942Z,0.68
2023-11-14T14:43:59.192Z,0.88
2023-11-14T14:49:01.129Z,1.30
2023-11-14T14:54:04.398Z,1.27
2023-11-14T14:59:06.551Z,1.08
2023-11-14T15:04:08.731Z,0.73
2023-11-14T15:09:12.128Z,1.33
2023-11-14T15:14:14.510Z,1.25
2023-11-14T15:19:16.515Z,1.27
2023-11-14T15:24:20.866Z,1.67
2023-11-14T15:29:23.682Z,1.25
2023-11-14T15:34:27.878Z,1.20
2023-11-14T15:39:33.307Z,0.90
2023-11-14T15:44:36.573Z,0.93
2023-11-14T15:49:38.793Z,0.95
2023-11-14T15:54:40.670Z,1.30
2023-11-14T15:59:43.851Z,1.00
2023-11-14T16:04:45.690Z,0.98
2023-11-14T16:09:47.618Z,1.27
2023-11-14T16:14:50.879Z,0.85
2023-11-14T16:19:55.361Z,0.77
2023-11-14T16:25:02.000Z,0.75
2023-11-14T16:30:05.932Z,1.23
2023-11-14T16:35:10.892Z,1.60
2023-11-14T16:40:16.075Z,0.93
2023-11-14T16:45:18.704Z,2.53
2023-11-14T16:50:21.020Z,1.98
2023-11-14T16:55:23.454Z,1.52
2023-11-14T17:00:29.311Z,0.93
2023-11-14T17:05:38.334Z,1.77
2023-11-14T17:10:45.862Z,1.27
2023-11-14T17:21:44.324Z,1.48
2023-11-14T17:26:49.358Z,1.50
2023-11-14T17:31:53.886Z,2.17
2023-11-14T17:42:11.834Z,2.17
2023-11-14T17:47:15.083Z,1.00
2023-11-14T17:52:18.027Z,1.48
2023-11-14T17:57:20.907Z,1.58
2023-11-14T18:02:23.481Z,1.00
2023-11-14T18:07:25.713Z,0.47
2023-11-14T18:12:28.303Z,0.70
2023-11-14T18:17:30.312Z,0.55
2023-11-14T18:22:34.516Z,0.88
2023-11-14T18:27:36.515Z,0.95
2023-11-14T18:32:39.532Z,1.40
2023-11-14T18:37:41.860Z,1.33
2023-11-14T18:42:46.503Z,1.88
2023-11-14T18:47:48.455Z,2.47
2023-11-14T18:52:53.342Z,1.48
2023-11-14T18:57:55.826Z,1.50
2023-11-14T19:02:57.929Z,1.27
2023-11-14T19:07:59.851Z,1.17
2023-11-14T19:13:02.064Z,1.20
2023-11-14T19:18:04.263Z,1.42
2023-11-14T19:23:40.402Z,1.25
2023-11-14T19:28:29.566Z,0.85
2023-11-14T19:33:31.455Z,1.83
2023-11-14T19:38:34.940Z,2.22
2023-11-14T19:43:41.010Z,2.85
2023-11-14T19:48:43.106Z,1.92
2023-11-14T19:53:45.092Z,3.88
2023-11-14T19:58:47.076Z,5.75
2023-11-14T20:03:49.632Z,2.72
2023-11-14T20:08:51.942Z,6.63
2023-11-14T20:13:53.846Z,2.78
2023-11-14T20:18:55.649Z,2.28
2023-11-14T20:23:57.835Z,1.50
2023-11-14T20:28:59.971Z,2.00
2023-11-14T20:34:01.941Z,1.73
2023-11-14T20:39:04.163Z,1.23
2023-11-14T20:44:07.098Z,2.65
2023-11-14T20:49:09.324Z,2.13
2023-11-14T20:54:11.662Z,4.78
2023-11-14T20:59:14.000Z,2.00
2023-11-14T21:04:16.023Z,2.72
2023-11-14T21:09:19.188Z,2.50
2023-11-14T21:14:24.074Z,3.50
2023-11-14T21:19:25.949Z,1.65
2023-11-14T21:24:32.185Z,3.95
2023-11-14T21:29:34.222Z,3.05
2023-11-14T21:34:36.632Z,2.35
2023-11-14T21:39:38.649Z,2.08
2023-11-14T21:44:40.613Z,1.77
2023-11-14T21:49:43.752Z,2.90
2023-11-14T21:54:46.777Z,1.95
2023-11-14T21:59:50.487Z,2.13
2023-11-14T22:04:54.655Z,2.65
2023-11-14T22:09:56.413Z,1.48
2023-11-14T22:14:59.269Z,1.50
2023-11-14T22:20:03.463Z,1.27
2023-11-14T22:25:09.592Z,1.65
2023-11-14T22:30:14.866Z,1.27
2023-11-14T22:35:16.804Z,1.60
2023-11-14T22:40:19.420Z,1.80
2023-11-14T22:45:24.049Z,1.73
2023-11-14T22:50:26.064Z,1.02
2023-11-14T22:55:27.892Z,1.08
2023-11-14T23:00:45.366Z,1.27
2023-11-14T23:05:50.487Z,0.88
2023-11-14T23:10:52.550Z,1.20
2023-11-14T23:15:55.822Z,0.98
2023-11-14T23:20:57.729Z,0.80
2023-11-14T23:26:00.000Z,1.00
2023-11-14T23:31:04.187Z,1.08
2023-11-14T23:36:06.880Z,0.93
2023-11-14T23:41:11.042Z,0.93
2023-11-14T23:46:17.963Z,0.45
2023-11-14T23:51:22.705Z,0.50
2023-11-14T23:56:24.890Z,1.08
